weather station
Area: 4758 km2
The highest point: Sněžka (1603 m.s.l.)
Total stations: 27
Stations online: 27
Stations offline: 0
Current weather
6°C

Meteorological map - weather stations in Královéhradecký

. The meteorological maps show weather information from WARIO weather stations

Weather stations Královéhradecký

 UpdatesNameStatusTemperatureHumidityWind speedWind direction
4.4.2020 20:13Božanov2.9 °C72.7 %1.1 m/s SE
4.4.2020 20:13Červený Kostelec - Bohdašín5.0 °C61.6 %1.1 m/s N
4.4.2020 20:14Červený Kostelec - Stolín5.8 °C69.2 %0.7 m/s SW
4.4.2020 20:13Brzice7.1 °C56.6 %1.8 m/s N
4.4.2020 20:14Chlumec nad Cidlinou IV7.5 °C63.6 %0.7 m/s SE
4.4.2020 20:13Chlumec nad Cidlinou II8.1 °C62.9 %1.0 m/s NE
4.4.2020 20:14Hradec Králové - Plotiště nad Labem6.4 °C53.7 %1.4 m/s NW
4.4.2020 20:10Vrchlabí6.5 °C66.3 %0.9 m/s NE
4.4.2020 20:13Dvůr Králové nad Labem6.5 °C71.1 %1.5 m/s NW
4.4.2020 20:13Hajnice2.4 °C77.3 %0.6 m/s SW
4.4.2020 20:13Černilov7.0 °C59.8 %1.1 m/s NE
4.4.2020 20:14Kacákova Lhota7.4 °C54.8 %1.0 m/s N
4.4.2020 20:13Červený Kostelec - Kemp Brodský7.1 °C56.4 %1.8 m/s NE
4.4.2020 20:14Hradec Králové7.1 °C54.7 %0.0 m/s SE
4.4.2020 20:14Pecka - Horní Javoří7.5 °C51.7 %0.9 m/s NW
4.4.2020 20:14Vrchovnice7.8 °C51.2 %1.8 m/s NE
4.4.2020 20:13Janatov6.5 °C57.8 %1.1 m/s E
4.4.2020 20:14Hradec Králové - Roudnička6.9 °C55.2 %1.3 m/s SE
4.4.2020 20:13Pohoří6.9 °C53.3 %1.7 m/s N
4.4.2020 20:14Police nad Metují6.3 °C58.5 %1.7 m/s NE
4.4.2020 20:13Zábřezí - Řečice5.2 °C70.4 %1.7 m/s NE
4.4.2020 20:13Skuřina5.6 °C64.9 %0.6 m/s E
4.4.2020 20:13Sobotka5.9 °C72.3 %0.0 m/s N
4.4.2020 20:13Trutnov6.2 °C61.9 %0.0 m/s NE
4.4.2020 20:13Vrchlabí3.2 °C67.3 %0.7 m/s W
4.4.2020 20:14Vysoká nad Labem8.2 °C50.9 %0.0 m/s S
4.4.2020 20:14Lužec nad Cidlinou6.5 °C100.0 %0.9 m/s N
Email notifications
Enter your email address to subscribe to notifications about news at warioweather.com. Your email address will not be used for any purpose other than sending these emails and will not be provided to any third party. The subscription can be ended at any time.
All data are only indicative. The portal administrator has no responsibility for potentially incorrect data and related consequences. Publishing or further sharing of content from www.warioweather.com is only allowed with written consent from WANET s.r.o.